Time;durP1;ratioP1;P1;durP2;ratioP2;P2;SDS_P1;SDS_P2;PMS_P1;PMS_P2;Temp;Humidity;BMP_temperature;BMP_pressure;BME280_temperature;BME280_humidity;BME280_pressure;Samples;Min_cycle;Max_cycle;Signal;HPM_P1;HPM_P2
2022/09/24 00:02:12;;;;;;;8.13;7.33;;;;;;;;;;5094270;28;20509;-71
2022/09/24 00:04:39;;;;;;;9.90;8.90;;;;;;;;;;5094203;28;20976;-71
2022/09/24 00:07:06;;;;;;;14.37;9.27;;;;;;;;;;5094529;28;20824;-71
2022/09/24 00:09:35;;;;;;;9.90;7.90;;;;;;;;;;5094363;28;20889;-71
2022/09/24 00:12:03;;;;;;;11.40;8.50;;;;;;;;;;5094337;28;20463;-71
2022/09/24 00:14:30;;;;;;;10.93;8.07;;;;;;;;;;5093945;28;20478;-71
2022/09/24 00:16:57;;;;;;;11.07;8.30;;;;;;;;;;5094230;28;20454;-71
2022/09/24 00:19:24;;;;;;;11.23;9.20;;;;;;;;;;5094000;28;20809;-71
2022/09/24 00:21:51;;;;;;;10.40;8.60;;;;;;;;;;5094039;28;20593;-71
2022/09/24 00:27:01;;;;;;;9.83;8.33;;;;;;;;;;5093600;28;20438;-70
2022/09/24 00:29:31;;;;;;;14.80;10.47;;;;;;;;;;5093918;28;20454;-70
2022/09/24 00:31:58;;;;;;;8.97;8.07;;;;;;;;;;5093854;28;20451;-70
2022/09/24 00:34:26;;;;;;;11.43;8.87;;;;;;;;;;5093466;28;20462;-71
2022/09/24 00:36:53;;;;;;;13.20;9.27;;;;;;;;;;5093826;28;20803;-71
2022/09/24 00:39:20;;;;;;;10.50;9.40;;;;;;;;;;5093654;28;20963;-71
2022/09/24 00:41:47;;;;;;;9.63;8.63;;;;;;;;;;5093560;28;20513;-71
2022/09/24 00:44:33;;;;;;;12.27;8.80;;;;;;;;;;5093361;28;20470;-71
2022/09/24 00:47:01;;;;;;;14.90;9.77;;;;;;;;;;5093515;28;20525;-71
2022/09/24 00:49:28;;;;;;;25.17;10.50;;;;;;;;;;5093455;28;20451;-71
2022/09/24 00:51:55;;;;;;;10.20;8.20;;;;;;;;;;5093747;28;20454;-71
2022/09/24 00:54:25;;;;;;;10.40;8.83;;;;;;;;;;5093091;28;20471;-71
2022/09/24 00:56:53;;;;;;;13.93;9.70;;;;;;;;;;5093456;28;20486;-71
2022/09/24 00:59:21;;;;;;;15.37;10.40;;;;;;;;;;5093459;28;20966;-71
2022/09/24 01:01:49;;;;;;;15.50;11.93;;;;;;;;;;5092691;28;20532;-71
2022/09/24 01:04:20;;;;;;;13.17;9.57;;;;;;;;;;5093166;28;20490;-71
2022/09/24 01:06:47;;;;;;;14.70;10.80;;;;;;;;;;5093420;28;20455;-71
2022/09/24 01:09:14;;;;;;;11.87;9.60;;;;;;;;;;5092594;28;20550;-71
2022/09/24 01:11:45;;;;;;;16.10;9.40;;;;;;;;;;5092844;28;20455;-71
2022/09/24 01:14:31;;;;;;;13.63;10.00;;;;;;;;;;5092772;28;20479;-71
2022/09/24 01:17:03;;;;;;;12.40;8.43;;;;;;;;;;5093208;28;20830;-71
2022/09/24 01:19:44;;;;;;;11.60;9.67;;;;;;;;;;5093320;28;20939;-71
2022/09/24 01:22:15;;;;;;;11.13;9.40;;;;;;;;;;5093371;28;20493;-71
2022/09/24 01:24:49;;;;;;;10.03;9.03;;;;;;;;;;5093293;28;20466;-71
2022/09/24 01:27:18;;;;;;;16.03;10.23;;;;;;;;;;5093162;28;20462;-71
2022/09/24 01:29:52;;;;;;;12.70;9.83;;;;;;;;;;5092978;28;20455;-71
2022/09/24 01:32:23;;;;;;;12.90;9.83;;;;;;;;;;5092788;28;20431;-71
2022/09/24 01:34:51;;;;;;;11.23;10.00;;;;;;;;;;5092597;28;20478;-71
2022/09/24 01:37:21;;;;;;;12.53;9.93;;;;;;;;;;5092951;28;20940;-71
2022/09/24 01:39:48;;;;;;;14.40;10.00;;;;;;;;;;5092756;28;20490;-71
2022/09/24 01:42:16;;;;;;;12.30;10.20;;;;;;;;;;5092590;28;21026;-71
2022/09/24 01:44:44;;;;;;;11.23;9.37;;;;;;;;;;5092251;28;20951;-71
2022/09/24 01:47:15;;;;;;;12.67;10.93;;;;;;;;;;5092464;28;20451;-71
2022/09/24 01:49:43;;;;;;;14.30;9.60;;;;;;;;;;5092707;28;20443;-71
2022/09/24 01:52:13;;;;;;;12.00;9.60;;;;;;;;;;5092423;28;20512;-71
2022/09/24 01:54:42;;;;;;;12.10;10.50;;;;;;;;;;5092283;28;20471;-71
2022/09/24 01:57:13;;;;;;;12.90;10.40;;;;;;;;;;5092749;28;20757;-71
2022/09/24 01:59:43;;;;;;;13.00;10.27;;;;;;;;;;5092361;28;20948;-71
2022/09/24 02:02:14;;;;;;;12.37;11.10;;;;;;;;;;5092360;28;20483;-71
2022/09/24 02:04:45;;;;;;;14.07;11.00;;;;;;;;;;5092483;28;20470;-71
2022/09/24 02:07:15;;;;;;;15.10;10.70;;;;;;;;;;5092417;28;20439;-71
2022/09/24 02:09:43;;;;;;;12.30;10.77;;;;;;;;;;5092377;28;20847;-71
2022/09/24 02:12:13;;;;;;;13.37;11.17;;;;;;;;;;5092290;28;20447;-71
2022/09/24 02:14:43;;;;;;;12.53;10.80;;;;;;;;;;5092308;28;20834;-71
2022/09/24 02:17:10;;;;;;;12.47;9.90;;;;;;;;;;5092841;28;20557;-71
2022/09/24 02:19:39;;;;;;;10.93;9.80;;;;;;;;;;5092263;28;20435;-71
2022/09/24 02:22:08;;;;;;;13.03;10.60;;;;;;;;;;5092193;28;20928;-71
2022/09/24 02:24:37;;;;;;;16.70;12.13;;;;;;;;;;5092136;28;20982;-71
2022/09/24 02:27:04;;;;;;;12.80;11.17;;;;;;;;;;5092060;28;20457;-71
2022/09/24 02:29:31;;;;;;;12.70;10.47;;;;;;;;;;5092266;28;20461;-71
2022/09/24 02:32:00;;;;;;;11.43;10.27;;;;;;;;;;5092395;28;21034;-71
2022/09/24 02:34:28;;;;;;;14.90;10.27;;;;;;;;;;5092140;28;20475;-71
2022/09/24 02:36:56;;;;;;;11.07;9.60;;;;;;;;;;5092346;28;20451;-71
2022/09/24 02:39:25;;;;;;;13.23;10.30;;;;;;;;;;5091823;28;20455;-71
2022/09/24 02:41:53;;;;;;;14.60;9.93;;;;;;;;;;5091970;28;20481;-71
2022/09/24 02:44:21;;;;;;;12.27;10.80;;;;;;;;;;5091944;28;20490;-71
2022/09/24 02:46:49;;;;;;;12.20;9.70;;;;;;;;;;5092103;28;20450;-71
2022/09/24 02:49:17;;;;;;;16.97;9.67;;;;;;;;;;5092104;28;20439;-71
2022/09/24 02:51:44;;;;;;;13.17;9.23;;;;;;;;;;5092209;28;20561;-71
2022/09/24 02:54:11;;;;;;;12.30;10.23;;;;;;;;;;5091942;28;20984;-70
2022/09/24 02:56:40;;;;;;;12.17;10.80;;;;;;;;;;5091814;28;20473;-71
2022/09/24 02:59:07;;;;;;;12.00;10.43;;;;;;;;;;5092216;28;20454;-71
2022/09/24 03:01:35;;;;;;;15.40;10.60;;;;;;;;;;5092085;28;20461;-71
2022/09/24 03:04:02;;;;;;;17.23;10.00;;;;;;;;;;5091637;28;20490;-71
2022/09/24 03:06:30;;;;;;;15.50;11.20;;;;;;;;;;5091863;28;20458;-71
2022/09/24 03:08:57;;;;;;;13.43;10.40;;;;;;;;;;5091779;28;20451;-71
2022/09/24 03:11:24;;;;;;;12.23;10.67;;;;;;;;;;5092131;28;20454;-71
2022/09/24 03:13:53;;;;;;;11.50;9.37;;;;;;;;;;5091550;28;20450;-71
2022/09/24 03:16:20;;;;;;;22.13;10.40;;;;;;;;;;5091539;28;20446;-71
2022/09/24 03:18:47;;;;;;;14.40;11.53;;;;;;;;;;5091940;28;20431;-71
2022/09/24 03:21:16;;;;;;;15.33;10.77;;;;;;;;;;5091754;28;20455;-71
2022/09/24 03:23:43;;;;;;;18.07;10.27;;;;;;;;;;5091317;28;20489;-71
2022/09/24 03:26:11;;;;;;;13.67;10.17;;;;;;;;;;5091826;28;20458;-71
2022/09/24 03:28:38;;;;;;;18.70;11.20;;;;;;;;;;5091815;28;20454;-71
2022/09/24 03:31:07;;;;;;;18.67;11.43;;;;;;;;;;5091468;28;20447;-71
2022/09/24 03:33:36;;;;;;;13.50;11.60;;;;;;;;;;5093662;28;20443;-71
2022/09/24 03:36:05;;;;;;;19.73;10.57;;;;;;;;;;5095365;28;20493;-71
2022/09/24 03:38:33;;;;;;;13.80;11.27;;;;;;;;;;5095136;28;20446;-71
2022/09/24 03:41:01;;;;;;;12.20;10.83;;;;;;;;;;5095165;28;20952;-71
2022/09/24 03:43:28;;;;;;;14.80;10.80;;;;;;;;;;5094908;28;20479;-71
2022/09/24 03:45:55;;;;;;;17.07;11.43;;;;;;;;;;5095067;28;20834;-71
2022/09/24 03:48:24;;;;;;;13.93;10.90;;;;;;;;;;5095120;28;20450;-71
2022/09/24 03:50:52;;;;;;;18.10;10.13;;;;;;;;;;5094669;28;20519;-71
2022/09/24 03:53:19;;;;;;;12.67;9.83;;;;;;;;;;5094907;28;20470;-71
2022/09/24 03:55:47;;;;;;;12.60;9.77;;;;;;;;;;5094753;28;20470;-71
2022/09/24 03:58:14;;;;;;;14.63;10.53;;;;;;;;;;5094852;28;20868;-71
2022/09/24 04:00:42;;;;;;;16.13;11.57;;;;;;;;;;5094835;28;20932;-71
2022/09/24 04:03:09;;;;;;;14.63;10.00;;;;;;;;;;5094805;28;20478;-71
2022/09/24 04:05:39;;;;;;;11.37;9.70;;;;;;;;;;5094485;28;20588;-71
2022/09/24 04:08:06;;;;;;;14.03;10.30;;;;;;;;;;5094419;28;20490;-71
2022/09/24 04:10:33;;;;;;;14.67;10.03;;;;;;;;;;5094542;28;20937;-71
2022/09/24 04:13:01;;;;;;;17.33;11.50;;;;;;;;;;5094332;28;20539;-71
2022/09/24 04:15:28;;;;;;;12.83;10.70;;;;;;;;;;5094117;28;20547;-71
2022/09/24 04:17:56;;;;;;;16.13;10.27;;;;;;;;;;5094416;28;20943;-71
2022/09/24 04:20:24;;;;;;;13.77;10.80;;;;;;;;;;5094227;28;20450;-71
2022/09/24 04:22:54;;;;;;;12.70;10.20;;;;;;;;;;5093941;28;20486;-71
2022/09/24 04:25:21;;;;;;;14.17;12.67;;;;;;;;;;5094008;28;20482;-70
2022/09/24 04:27:53;;;;;;;12.73;11.10;;;;;;;;;;5093939;28;20794;-70
2022/09/24 04:30:20;;;;;;;13.83;9.87;;;;;;;;;;5093975;28;20438;-70
2022/09/24 04:32:47;;;;;;;15.27;12.40;;;;;;;;;;5094096;28;20974;-70
2022/09/24 04:35:14;;;;;;;17.10;11.23;;;;;;;;;;5094116;28;20470;-70
2022/09/24 04:37:41;;;;;;;16.23;10.63;;;;;;;;;;5094168;28;20450;-71
2022/09/24 04:40:11;;;;;;;17.03;11.20;;;;;;;;;;5094269;28;20447;-71
2022/09/24 04:42:38;;;;;;;12.67;10.50;;;;;;;;;;5093754;28;20970;-71
2022/09/24 04:45:06;;;;;;;13.37;10.63;;;;;;;;;;5092330;28;20470;-71
2022/09/24 04:47:33;;;;;;;13.10;9.67;;;;;;;;;;5093961;28;20465;-71
2022/09/24 04:50:01;;;;;;;13.07;10.40;;;;;;;;;;5093899;28;20450;-71
2022/09/24 04:52:31;;;;;;;15.40;10.80;;;;;;;;;;5093533;28;20557;-71
2022/09/24 04:54:58;;;;;;;15.60;11.53;;;;;;;;;;5093635;28;20557;-71
2022/09/24 04:57:27;;;;;;;15.27;11.33;;;;;;;;;;5093793;28;20454;-71
2022/09/24 04:59:55;;;;;;;14.33;11.03;;;;;;;;;;5093865;28;20435;-71
2022/09/24 05:02:22;;;;;;;13.83;10.87;;;;;;;;;;5093491;28;20464;-71
2022/09/24 05:04:50;;;;;;;14.07;11.17;;;;;;;;;;5093186;28;20552;-71
2022/09/24 05:07:17;;;;;;;15.03;11.30;;;;;;;;;;5093473;28;20789;-71
2022/09/24 05:09:44;;;;;;;14.30;11.53;;;;;;;;;;5093395;28;20462;-71
2022/09/24 05:12:11;;;;;;;16.30;12.20;;;;;;;;;;5093519;28;20465;-70
2022/09/24 05:14:39;;;;;;;20.03;11.83;;;;;;;;;;5093210;28;20459;-70
2022/09/24 05:17:06;;;;;;;16.07;11.23;;;;;;;;;;5093481;28;20537;-71
2022/09/24 05:19:34;;;;;;;20.80;12.37;;;;;;;;;;5093456;28;20454;-71
2022/09/24 05:22:01;;;;;;;15.33;12.40;;;;;;;;;;5093483;28;20458;-71
2022/09/24 05:24:28;;;;;;;14.70;11.13;;;;;;;;;;5092775;28;20497;-71
2022/09/24 05:27:10;;;;;;;15.10;11.77;;;;;;;;;;5092966;28;20454;-71
2022/09/24 05:29:39;;;;;;;20.90;12.60;;;;;;;;;;5093003;28;20474;-71
2022/09/24 05:32:08;;;;;;;13.77;11.70;;;;;;;;;;5093187;28;20453;-71
2022/09/24 05:34:35;;;;;;;19.93;12.23;;;;;;;;;;5092826;28;20573;-71
2022/09/24 05:37:02;;;;;;;11.47;10.33;;;;;;;;;;5093317;28;20457;-71
2022/09/24 05:39:30;;;;;;;12.60;11.13;;;;;;;;;;5094221;28;20949;-71
2022/09/24 05:41:57;;;;;;;12.43;9.40;;;;;;;;;;5093928;28;20466;-71
2022/09/24 05:44:24;;;;;;;12.90;9.73;;;;;;;;;;5093616;28;20502;-71
2022/09/24 05:46:53;;;;;;;15.97;11.00;;;;;;;;;;5093776;28;20459;-71
2022/09/24 05:49:20;;;;;;;14.10;10.60;;;;;;;;;;5093950;28;20822;-71
2022/09/24 05:51:50;;;;;;;12.87;10.73;;;;;;;;;;5093585;28;20461;-71
2022/09/24 05:54:17;;;;;;;11.77;10.67;;;;;;;;;;5093845;28;20469;-71
2022/09/24 05:56:44;;;;;;;13.60;11.97;;;;;;;;;;5093577;28;20473;-71
2022/09/24 05:59:11;;;;;;;13.33;10.87;;;;;;;;;;5093829;28;20435;-71
2022/09/24 06:01:38;;;;;;;15.90;13.60;;;;;;;;;;5093333;28;20533;-71
2022/09/24 06:04:07;;;;;;;12.43;11.07;;;;;;;;;;5093425;28;20497;-71
2022/09/24 06:06:34;;;;;;;15.90;11.63;;;;;;;;;;5093675;28;20458;-71
2022/09/24 06:09:01;;;;;;;15.17;11.50;;;;;;;;;;5093702;28;20455;-71
2022/09/24 06:11:32;;;;;;;16.97;11.50;;;;;;;;;;5093630;28;20446;-71
2022/09/24 06:14:01;;;;;;;18.23;11.17;;;;;;;;;;5093519;28;20427;-71
2022/09/24 06:16:29;;;;;;;19.13;11.10;;;;;;;;;;5093544;28;20888;-71
2022/09/24 06:18:56;;;;;;;19.13;11.30;;;;;;;;;;5093232;28;20459;-71
2022/09/24 06:21:24;;;;;;;13.80;11.30;;;;;;;;;;5093531;28;20507;-71
2022/09/24 06:23:52;;;;;;;22.27;10.67;;;;;;;;;;5093319;28;20489;-71
2022/09/24 06:26:19;;;;;;;16.43;11.33;;;;;;;;;;5093071;28;20458;-71
2022/09/24 06:28:46;;;;;;;16.93;14.03;;;;;;;;;;5093284;28;20504;-71
2022/09/24 06:31:13;;;;;;;22.03;15.77;;;;;;;;;;5093240;28;20469;-71
2022/09/24 06:33:41;;;;;;;46.53;40.80;;;;;;;;;;5092822;28;20454;-71
2022/09/24 06:36:09;;;;;;;14.80;10.53;;;;;;;;;;5093026;28;20459;-71
2022/09/24 06:38:39;;;;;;;15.60;9.97;;;;;;;;;;5093351;28;20430;-71
2022/09/24 06:41:07;;;;;;;18.27;10.60;;;;;;;;;;5093133;28;20911;-71
2022/09/24 06:43:35;;;;;;;15.53;10.47;;;;;;;;;;5093072;28;20435;-71
2022/09/24 06:46:02;;;;;;;16.13;10.63;;;;;;;;;;5093125;28;20488;-71
2022/09/24 06:48:30;;;;;;;12.57;9.10;;;;;;;;;;5092860;28;20447;-71
2022/09/24 06:50:57;;;;;;;12.13;9.53;;;;;;;;;;5093152;28;20458;-71
2022/09/24 06:53:24;;;;;;;9.33;8.43;;;;;;;;;;5093206;28;20446;-71
2022/09/24 06:55:53;;;;;;;10.27;9.03;;;;;;;;;;5092686;28;20478;-71
2022/09/24 06:58:20;;;;;;;23.67;18.13;;;;;;;;;;5093085;28;20446;-71
2022/09/24 07:00:51;;;;;;;9.97;9.00;;;;;;;;;;5092583;28;20443;-71
2022/09/24 07:03:19;;;;;;;10.10;9.00;;;;;;;;;;5093033;28;20936;-71
2022/09/24 07:05:46;;;;;;;12.93;8.83;;;;;;;;;;5092421;28;20502;-71
2022/09/24 07:08:13;;;;;;;13.70;8.30;;;;;;;;;;5094381;28;20463;-71
2022/09/24 07:10:42;;;;;;;8.13;7.33;;;;;;;;;;5097065;28;20431;-71
2022/09/24 07:13:11;;;;;;;9.30;8.40;;;;;;;;;;5096495;28;20450;-71
2022/09/24 07:15:38;;;;;;;9.70;6.83;;;;;;;;;;5096602;28;20498;-71
2022/09/24 07:18:05;;;;;;;154.33;76.70;;;;;;;;;;5096618;28;20450;-71
2022/09/24 07:20:33;;;;;;;34.33;18.80;;;;;;;;;;5096908;28;20792;-71
2022/09/24 07:23:00;;;;;;;15.77;10.10;;;;;;;;;;5096685;28;20474;-71
2022/09/24 07:25:27;;;;;;;80.40;43.27;;;;;;;;;;5095948;28;20490;-71
2022/09/24 07:27:54;;;;;;;35.97;23.20;;;;;;;;;;5096432;28;20447;-71
2022/09/24 07:30:23;;;;;;;34.13;23.83;;;;;;;;;;5096624;28;20442;-71
2022/09/24 07:32:54;;;;;;;30.07;22.20;;;;;;;;;;5096518;28;20454;-71
2022/09/24 07:35:22;;;;;;;7.17;6.53;;;;;;;;;;5096294;28;20836;-71
2022/09/24 07:37:49;;;;;;;7.50;6.80;;;;;;;;;;5096351;28;20498;-71
2022/09/24 07:40:16;;;;;;;7.27;6.47;;;;;;;;;;5096232;28;20435;-71
2022/09/24 07:42:47;;;;;;;9.37;7.30;;;;;;;;;;5095952;28;20462;-71
2022/09/24 07:45:16;;;;;;;8.87;8.07;;;;;;;;;;5095676;28;20490;-71
2022/09/24 07:47:44;;;;;;;8.97;8.07;;;;;;;;;;5095810;28;20447;-71
2022/09/24 07:50:12;;;;;;;8.50;7.60;;;;;;;;;;5096042;28;20457;-71
2022/09/24 07:52:39;;;;;;;12.20;7.90;;;;;;;;;;5096120;28;20458;-71
2022/09/24 07:55:07;;;;;;;7.90;6.20;;;;;;;;;;5095823;28;20463;-71
2022/09/24 07:57:34;;;;;;;7.00;6.33;;;;;;;;;;5095749;28;20461;-71
2022/09/24 08:00:01;;;;;;;7.53;6.50;;;;;;;;;;5096072;28;20967;-71
2022/09/24 08:02:28;;;;;;;8.00;7.30;;;;;;;;;;5095694;28;20451;-71
2022/09/24 08:04:57;;;;;;;5.80;5.30;;;;;;;;;;5095236;28;20490;-71
2022/09/24 08:07:24;;;;;;;7.97;5.70;;;;;;;;;;5095852;28;20446;-71
2022/09/24 08:09:51;;;;;;;11.17;10.07;;;;;;;;;;5095606;28;20451;-71
2022/09/24 08:12:18;;;;;;;8.30;7.23;;;;;;;;;;5095483;28;20458;-71
2022/09/24 08:14:45;;;;;;;9.07;6.00;;;;;;;;;;5095127;28;20528;-71
2022/09/24 08:17:12;;;;;;;6.83;5.77;;;;;;;;;;5095703;28;20817;-72
2022/09/24 08:19:42;;;;;;;7.20;6.50;;;;;;;;;;5095145;28;20455;-71
2022/09/24 08:22:11;;;;;;;8.53;5.57;;;;;;;;;;5095352;28;20508;-71
2022/09/24 08:24:38;;;;;;;7.33;6.33;;;;;;;;;;5095399;28;20486;-71
2022/09/24 08:27:05;;;;;;;5.77;5.27;;;;;;;;;;5095615;28;20434;-71
2022/09/24 08:29:32;;;;;;;8.23;6.13;;;;;;;;;;5095440;28;20450;-71
2022/09/24 08:31:59;;;;;;;6.30;5.10;;;;;;;;;;5095167;28;20454;-70
2022/09/24 08:34:26;;;;;;;7.60;6.07;;;;;;;;;;5095358;28;20467;-71
2022/09/24 08:36:53;;;;;;;6.17;5.57;;;;;;;;;;5095019;28;20462;-71
2022/09/24 08:39:22;;;;;;;6.27;5.67;;;;;;;;;;5095276;28;20955;-71
2022/09/24 08:41:55;;;;;;;9.70;6.10;;;;;;;;;;5095031;28;20467;-71
2022/09/24 08:47:23;;;;;;;8.73;6.10;;;;;;;;;;5094937;28;20904;-71
2022/09/24 08:49:54;;;;;;;7.90;7.10;;;;;;;;;;5095244;28;20435;-71
2022/09/24 08:52:26;;;;;;;5.83;5.30;;;;;;;;;;5095062;28;20776;-71
2022/09/24 08:54:56;;;;;;;7.77;5.40;;;;;;;;;;5094499;28;20881;-71
2022/09/24 08:57:23;;;;;;;6.90;6.20;;;;;;;;;;5094608;28;20922;-71
2022/09/24 08:59:52;;;;;;;8.60;6.80;;;;;;;;;;5094781;28;20447;-71
2022/09/24 09:02:39;;;;;;;10.63;6.73;;;;;;;;;;5094453;28;20458;-71
2022/09/24 09:05:14;;;;;;;8.03;6.00;;;;;;;;;;5094406;28;20873;-71
2022/09/24 09:07:45;;;;;;;7.27;6.53;;;;;;;;;;5094660;28;20461;-71
2022/09/24 09:10:15;;;;;;;9.20;5.80;;;;;;;;;;5094816;28;20446;-71
2022/09/24 09:12:43;;;;;;;7.53;6.80;;;;;;;;;;5094346;28;20447;-71
2022/09/24 09:15:12;;;;;;;8.07;7.23;;;;;;;;;;5094325;28;20968;-71
2022/09/24 09:17:44;;;;;;;7.43;5.67;;;;;;;;;;5094455;28;20830;-72
2022/09/24 09:20:14;;;;;;;7.90;6.87;;;;;;;;;;5094316;28;20438;-71
2022/09/24 09:22:44;;;;;;;8.30;5.23;;;;;;;;;;5094443;28;20435;-71
2022/09/24 09:25:18;;;;;;;6.27;5.67;;;;;;;;;;5094182;28;20494;-71
2022/09/24 09:27:46;;;;;;;6.70;6.00;;;;;;;;;;5094428;28;20940;-71
2022/09/24 09:30:14;;;;;;;7.40;5.80;;;;;;;;;;5093986;28;20892;-71
2022/09/24 09:32:49;;;;;;;84.87;42.20;;;;;;;;;;5094144;28;20462;-71
2022/09/24 09:35:21;;;;;;;13.80;10.73;;;;;;;;;;5094037;28;20470;-71
2022/09/24 09:37:50;;;;;;;15.07;10.20;;;;;;;;;;5094413;28;20889;-71
2022/09/24 09:40:25;;;;;;;25.37;18.40;;;;;;;;;;5093811;28;20435;-71
2022/09/24 09:43:00;;;;;;;28.33;18.67;;;;;;;;;;5093802;28;20466;-71
2022/09/24 09:45:31;;;;;;;10.47;9.50;;;;;;;;;;5093445;28;20493;-71
2022/09/24 09:47:58;;;;;;;7.53;6.83;;;;;;;;;;5093620;28;20520;-71
2022/09/24 09:50:28;;;;;;;15.73;14.27;;;;;;;;;;5093587;28;20446;-71
2022/09/24 09:52:55;;;;;;;12.27;11.00;;;;;;;;;;5094001;28;20490;-72
2022/09/24 09:55:25;;;;;;;11.20;7.07;;;;;;;;;;5093295;28;20466;-71
2022/09/24 09:57:53;;;;;;;15.67;10.77;;;;;;;;;;5093541;28;20455;-71
2022/09/24 10:00:25;;;;;;;7.87;6.93;;;;;;;;;;5093484;28;20455;-71
2022/09/24 10:02:53;;;;;;;9.63;7.83;;;;;;;;;;5093711;28;20948;-71
2022/09/24 10:05:21;;;;;;;36.67;33.27;;;;;;;;;;5093408;28;20486;-71
2022/09/24 10:07:48;;;;;;;11.20;8.83;;;;;;;;;;5093485;28;20546;-71
2022/09/24 10:10:22;;;;;;;11.60;10.20;;;;;;;;;;5093695;28;20919;-71
2022/09/24 10:12:53;;;;;;;10.33;7.90;;;;;;;;;;5093735;28;20474;-71
2022/09/24 10:15:21;;;;;;;8.27;7.47;;;;;;;;;;5093381;28;20532;-71
2022/09/24 10:17:50;;;;;;;9.40;8.50;;;;;;;;;;5093284;28;20439;-71
2022/09/24 10:20:18;;;;;;;12.03;6.80;;;;;;;;;;5093225;28;20446;-71
2022/09/24 10:22:47;;;;;;;8.80;7.90;;;;;;;;;;5093325;28;20454;-71
2022/09/24 10:25:18;;;;;;;9.40;7.33;;;;;;;;;;5093349;28;20490;-71
2022/09/24 10:27:45;;;;;;;18.73;7.40;;;;;;;;;;5093221;28;20447;-71
2022/09/24 10:30:32;;;;;;;9.67;7.70;;;;;;;;;;5093113;28;20461;-71
2022/09/24 10:33:00;;;;;;;7.80;6.70;;;;;;;;;;5093404;28;20453;-71
2022/09/24 10:35:29;;;;;;;6.30;5.70;;;;;;;;;;5093119;28;20462;-71
2022/09/24 10:37:57;;;;;;;13.37;7.20;;;;;;;;;;5093418;28;20449;-71
2022/09/24 10:40:27;;;;;;;9.27;6.10;;;;;;;;;;5093207;28;20442;-71
2022/09/24 10:42:57;;;;;;;6.90;5.47;;;;;;;;;;5093985;28;20501;-71
2022/09/24 10:45:30;;;;;;;6.17;5.57;;;;;;;;;;5096904;28;20518;-71
2022/09/24 10:48:02;;;;;;;6.80;6.10;;;;;;;;;;5097243;28;20435;-71
2022/09/24 10:50:32;;;;;;;15.47;7.60;;;;;;;;;;5097444;28;20488;-71
2022/09/24 10:53:02;;;;;;;8.67;6.40;;;;;;;;;;5097428;28;20439;-71
2022/09/24 10:55:40;;;;;;;6.00;5.40;;;;;;;;;;5097197;28;20471;-71
2022/09/24 10:58:14;;;;;;;8.10;7.40;;;;;;;;;;5097303;28;20820;-71
2022/09/24 11:00:48;;;;;;;9.23;6.70;;;;;;;;;;5097221;28;20431;-71
2022/09/24 11:03:37;;;;;;;10.93;5.63;;;;;;;;;;5096923;28;20458;-71
2022/09/24 11:06:12;;;;;;;7.20;5.80;;;;;;;;;;5096974;28;20560;-72
2022/09/24 11:08:49;;;;;;;7.47;6.53;;;;;;;;;;5096816;28;20476;-72
2022/09/24 11:11:21;;;;;;;7.60;6.57;;;;;;;;;;5097041;28;20431;-72
2022/09/24 11:13:50;;;;;;;10.03;6.00;;;;;;;;;;5096499;28;20939;-71
2022/09/24 11:16:32;;;;;;;11.07;8.30;;;;;;;;;;5096502;28;20450;-71
2022/09/24 11:19:02;;;;;;;7.00;6.30;;;;;;;;;;5094128;28;20458;-71
2022/09/24 11:21:33;;;;;;;8.13;5.77;;;;;;;;;;5096503;28;20453;-71
2022/09/24 11:24:14;;;;;;;8.10;6.13;;;;;;;;;;5096546;28;20442;-71
2022/09/24 11:26:47;;;;;;;12.30;10.57;;;;;;;;;;5096428;28;20493;-71
2022/09/24 11:29:21;;;;;;;15.13;9.70;;;;;;;;;;5096425;28;20454;-71
2022/09/24 11:31:53;;;;;;;8.73;7.60;;;;;;;;;;5096343;28;20788;-71
2022/09/24 11:34:30;;;;;;;25.87;18.60;;;;;;;;;;5096403;28;20466;-72
2022/09/24 11:37:04;;;;;;;7.80;5.40;;;;;;;;;;5096214;28;20455;-71
2022/09/24 11:39:40;;;;;;;6.83;6.07;;;;;;;;;;5096486;28;20496;-71
2022/09/24 11:42:17;;;;;;;5.87;5.20;;;;;;;;;;5096263;28;20468;-73
2022/09/24 11:44:53;;;;;;;9.90;8.40;;;;;;;;;;5095883;28;20473;-71
2022/09/24 11:47:25;;;;;;;15.30;6.40;;;;;;;;;;5095993;28;20535;-71
2022/09/24 11:50:02;;;;;;;6.83;6.03;;;;;;;;;;5096238;28;20885;-71
2022/09/24 11:52:32;;;;;;;6.80;6.10;;;;;;;;;;5095904;28;20457;-71
2022/09/24 11:55:02;;;;;;;7.23;6.37;;;;;;;;;;5095390;28;20458;-72
2022/09/24 11:57:32;;;;;;;5.83;5.27;;;;;;;;;;5096320;28;20455;-71
2022/09/24 12:00:03;;;;;;;6.23;5.60;;;;;;;;;;5095956;28;20442;-71
2022/09/24 12:02:32;;;;;;;5.60;5.10;;;;;;;;;;5096054;28;20796;-71
2022/09/24 12:05:04;;;;;;;8.33;6.40;;;;;;;;;;5095684;28;20805;-71
2022/09/24 12:07:35;;;;;;;8.70;6.53;;;;;;;;;;5096121;28;20443;-71
2022/09/24 12:10:04;;;;;;;7.20;5.47;;;;;;;;;;5095705;28;20971;-71
2022/09/24 12:12:33;;;;;;;7.37;5.23;;;;;;;;;;5095838;28;20453;-71
2022/09/24 12:15:02;;;;;;;8.93;6.10;;;;;;;;;;5095708;28;20528;-71
2022/09/24 12:17:34;;;;;;;8.37;6.80;;;;;;;;;;5095732;28;20451;-71
2022/09/24 12:20:03;;;;;;;9.77;6.00;;;;;;;;;;5095807;28;20492;-71
2022/09/24 12:22:32;;;;;;;8.33;7.63;;;;;;;;;;5095633;28;20496;-71
2022/09/24 12:25:00;;;;;;;10.33;5.97;;;;;;;;;;5095182;28;20497;-71
2022/09/24 12:27:29;;;;;;;9.00;5.63;;;;;;;;;;5095363;28;20501;-71
2022/09/24 12:32:56;;;;;;;14.53;6.50;;;;;;;;;;5095305;28;20421;-71
2022/09/24 12:35:32;;;;;;;21.83;15.97;;;;;;;;;;5095332;28;20563;-71
2022/09/24 12:38:02;;;;;;;44.23;25.70;;;;;;;;;;5095313;28;20888;-71
2022/09/24 12:40:40;;;;;;;54.50;33.23;;;;;;;;;;5095292;28;20442;-71
2022/09/24 12:43:14;;;;;;;170.10;103.70;;;;;;;;;;5094935;28;20435;-71
2022/09/24 12:45:41;;;;;;;80.87;54.43;;;;;;;;;;5094687;28;20493;-70
2022/09/24 12:48:13;;;;;;;86.20;49.90;;;;;;;;;;5094855;28;20442;-70
2022/09/24 12:50:44;;;;;;;30.43;18.53;;;;;;;;;;5095155;28;20460;-71
2022/09/24 12:53:23;;;;;;;348.37;225.63;;;;;;;;;;5094848;28;20454;-71
2022/09/24 12:55:51;;;;;;;67.50;46.37;;;;;;;;;;5094649;28;20557;-71
2022/09/24 12:58:27;;;;;;;69.57;44.43;;;;;;;;;;5094674;28;20451;-70
2022/09/24 13:01:05;;;;;;;53.60;41.03;;;;;;;;;;5094987;28;20430;-71
2022/09/24 13:03:33;;;;;;;15.90;11.90;;;;;;;;;;5095026;28;20442;-71
2022/09/24 13:06:02;;;;;;;9.73;8.73;;;;;;;;;;5093431;28;20490;-71
2022/09/24 13:08:36;;;;;;;8.87;7.80;;;;;;;;;;5094424;28;20947;-71
2022/09/24 13:11:05;;;;;;;10.43;8.17;;;;;;;;;;5094482;28;20439;-71
2022/09/24 13:13:34;;;;;;;9.33;8.37;;;;;;;;;;5094254;28;20502;-71
2022/09/24 13:16:03;;;;;;;7.57;6.80;;;;;;;;;;5094557;28;20462;-71
2022/09/24 13:18:31;;;;;;;13.30;8.43;;;;;;;;;;5094822;28;20453;-71
2022/09/24 13:21:00;;;;;;;9.50;8.00;;;;;;;;;;5094203;28;20455;-71
2022/09/24 13:23:34;;;;;;;8.07;7.27;;;;;;;;;;5093772;28;20458;-71
2022/09/24 13:26:03;;;;;;;7.73;7.03;;;;;;;;;;5093940;28;21025;-71
2022/09/24 13:28:32;;;;;;;11.93;8.07;;;;;;;;;;5093870;28;20465;-71
2022/09/24 13:31:03;;;;;;;8.70;7.67;;;;;;;;;;5093998;28;20454;-71
2022/09/24 13:33:31;;;;;;;9.10;7.77;;;;;;;;;;5093658;28;20519;-73
2022/09/24 13:36:05;;;;;;;8.43;7.50;;;;;;;;;;5093871;28;20843;-72
2022/09/24 13:38:35;;;;;;;14.00;8.80;;;;;;;;;;5093776;28;20955;-72
2022/09/24 13:41:06;;;;;;;81.63;56.23;;;;;;;;;;5094131;28;20454;-72
2022/09/24 13:43:37;;;;;;;77.77;52.77;;;;;;;;;;5093392;28;21001;-72
2022/09/24 13:46:06;;;;;;;19.53;14.93;;;;;;;;;;5093605;28;20863;-71
2022/09/24 13:48:36;;;;;;;11.17;8.80;;;;;;;;;;5093498;28;20504;-71
2022/09/24 13:51:04;;;;;;;10.43;9.20;;;;;;;;;;5093704;28;20454;-71
2022/09/24 13:53:36;;;;;;;10.67;8.33;;;;;;;;;;5093299;28;20832;-71
2022/09/24 13:56:06;;;;;;;11.73;9.23;;;;;;;;;;5093761;28;20463;-71
2022/09/24 13:58:34;;;;;;;9.40;8.50;;;;;;;;;;5093390;28;20542;-71
2022/09/24 14:01:03;;;;;;;8.80;7.50;;;;;;;;;;5093534;28;20836;-71
2022/09/24 14:03:31;;;;;;;10.50;8.73;;;;;;;;;;5093153;28;20454;-71
2022/09/24 14:05:59;;;;;;;10.77;8.33;;;;;;;;;;5093318;28;20482;-71
2022/09/24 14:08:28;;;;;;;9.07;8.17;;;;;;;;;;5093272;28;20455;-71
2022/09/24 14:11:08;;;;;;;12.07;8.37;;;;;;;;;;5093391;28;21029;-71
2022/09/24 14:13:40;;;;;;;8.97;7.70;;;;;;;;;;5093075;28;20454;-71
2022/09/24 14:16:09;;;;;;;12.30;11.10;;;;;;;;;;5093142;28;20478;-71
2022/09/24 14:18:36;;;;;;;11.50;8.80;;;;;;;;;;5093022;28;20442;-71
2022/09/24 14:21:08;;;;;;;11.97;9.30;;;;;;;;;;5093175;28;20832;-71
2022/09/24 14:23:37;;;;;;;11.20;9.30;;;;;;;;;;5092895;28;20813;-71
2022/09/24 14:26:06;;;;;;;10.47;9.33;;;;;;;;;;5092901;28;20486;-71
2022/09/24 14:28:34;;;;;;;9.90;8.90;;;;;;;;;;5092858;28;20458;-71
2022/09/24 14:31:01;;;;;;;14.60;8.87;;;;;;;;;;5093287;28;20491;-71
2022/09/24 14:33:30;;;;;;;17.13;9.97;;;;;;;;;;5092687;28;20453;-71
2022/09/24 14:35:59;;;;;;;10.50;9.43;;;;;;;;;;5092824;28;20853;-73
2022/09/24 14:38:28;;;;;;;11.47;10.37;;;;;;;;;;5092873;28;20823;-72
2022/09/24 14:40:58;;;;;;;16.03;9.27;;;;;;;;;;5092851;28;20460;-72
2022/09/24 14:43:30;;;;;;;10.47;9.10;;;;;;;;;;5092986;28;20450;-72
2022/09/24 14:46:02;;;;;;;8.37;7.50;;;;;;;;;;5092914;28;20513;-71
2022/09/24 14:48:30;;;;;;;10.00;8.70;;;;;;;;;;5092916;28;20446;-71
2022/09/24 14:50:57;;;;;;;12.50;9.60;;;;;;;;;;5092891;28;20458;-71